Escanaba, MI

10:16 AM EST on December 29, 2014 (GMT -0500)
Soo Hill Location near | Change Station
CLOSE
Current Station
Personal Weather Station
Location: Escanaba, MI
Elevation: 708 ft
Nearby Weather Stations

Elev 708 ft 45.80 °N, 87.13 °W | Updated 6 seconds ago

Clear
Clear
1.4 °F
Feels Like 1 °F
N
0.0
Wind Variable Wind from West
Gusts 0.0 mph

Today
High -- | Low -- °F
--% Chance of Precip.
Yesterday
High -- | Low -- °F
Precip. -- in
8:29 AM 5:12 PM
First Quarter, 59% visible
Pressure 30.39 in
Visibility 10.0 miles
Clouds Clear
Windchill 1 °F
Dew Point -11 °F
Humidity 54%
Rainfall 0.00 in
Snow Depth Not available.
UV 1 out of 12
Pollen .10 out of 12
Air Quality Not available.
Flu Activity Not available.
METAR KESC 291455Z AUTO 31004KT 10SM CLR M14/M17 A3039 RMK AO1 52017

More Conditions Fewer Conditions

Pressure 30.39 in
Visibility 10.0 miles
Clouds Clear
Windchill 1 °F
Dew Point -11 °F
Humidity 54%
Rainfall 0.00 in
Snow Depth Not available.
UV 1 out of 12
Pollen .10 out of 12
Air Quality Not available.
Flu Activity Not available.
METAR KESC 291455Z AUTO 31004KT 10SM CLR M14/M17 A3039 RMK AO1 52017

More Conditions Fewer Conditions

10-Day Weather Forecast

Almanac

Astronomy

Dec. 29, 2014 Rise Set
Actual Time
Civil Twilight
Nautical Twilight
Astronomical Twilight
Moon
Length of Visible Light
Length of Day
Tomorrow will be .
, % of the Moon is Illuminated

Today's Extremes

State Highs State Lows

Community

WunderPhotos

Upload Photos

1,781,602 photos uploaded!

WunderBlogs® & News

Nearby

Air Quality

  Air Quality AQ Index Pollutant
Not available.

Snow Depth

Station Depth Elevation

Earthquake Activity

City Distance Mag. Time & Date
Minimum magnitude displayed is 2.5.

Coastal Water Temperatures

Place Temperature

Nearby Weather Stations